sensor_id;sensor_type;location;lat;lon;timestamp;temperature;humidity
28177;DHT22;15461;41.652;9.378;2023-11-22T00:00:38;11.50;99.90
28177;DHT22;15461;41.652;9.378;2023-11-22T00:03:03;11.40;99.90
28177;DHT22;15461;41.652;9.378;2023-11-22T00:05:29;11.40;99.90
28177;DHT22;15461;41.652;9.378;2023-11-22T00:07:55;11.40;99.90
28177;DHT22;15461;41.652;9.378;2023-11-22T00:10:21;11.40;99.90
28177;DHT22;15461;41.652;9.378;2023-11-22T00:12:46;11.30;99.90
28177;DHT22;15461;41.652;9.378;2023-11-22T00:15:12;11.30;99.90
28177;DHT22;15461;41.652;9.378;2023-11-22T00:17:44;11.40;99.90
28177;DHT22;15461;41.652;9.378;2023-11-22T00:20:11;11.40;99.90
28177;DHT22;15461;41.652;9.378;2023-11-22T00:22:36;11.40;99.90
28177;DHT22;15461;41.652;9.378;2023-11-22T00:25:02;11.40;99.90
28177;DHT22;15461;41.652;9.378;2023-11-22T00:27:29;11.40;99.90
28177;DHT22;15461;41.652;9.378;2023-11-22T00:29:57;11.40;99.90
28177;DHT22;15461;41.652;9.378;2023-11-22T00:32:24;11.30;99.90
28177;DHT22;15461;41.652;9.378;2023-11-22T00:34:51;11.30;99.90
28177;DHT22;15461;41.652;9.378;2023-11-22T00:37:17;11.30;99.90
28177;DHT22;15461;41.652;9.378;2023-11-22T00:39:43;11.30;99.90
28177;DHT22;15461;41.652;9.378;2023-11-22T00:42:09;11.30;99.90
28177;DHT22;15461;41.652;9.378;2023-11-22T00:44:35;11.30;99.90
28177;DHT22;15461;41.652;9.378;2023-11-22T00:47:02;11.20;99.90
28177;DHT22;15461;41.652;9.378;2023-11-22T00:49:28;11.30;99.90
28177;DHT22;15461;41.652;9.378;2023-11-22T00:51:54;11.20;99.90
28177;DHT22;15461;41.652;9.378;2023-11-22T00:54:20;11.20;99.90
28177;DHT22;15461;41.652;9.378;2023-11-22T00:56:46;11.20;99.90
28177;DHT22;15461;41.652;9.378;2023-11-22T00:59:15;11.20;99.90
28177;DHT22;15461;41.652;9.378;2023-11-22T01:01:41;11.20;99.90
28177;DHT22;15461;41.652;9.378;2023-11-22T01:04:07;11.30;99.90
28177;DHT22;15461;41.652;9.378;2023-11-22T01:06:34;11.30;99.90
28177;DHT22;15461;41.652;9.378;2023-11-22T01:09:00;11.30;99.90
28177;DHT22;15461;41.652;9.378;2023-11-22T01:11:26;11.30;99.90
28177;DHT22;15461;41.652;9.378;2023-11-22T01:13:52;11.30;99.90
28177;DHT22;15461;41.652;9.378;2023-11-22T01:16:17;11.30;99.90
28177;DHT22;15461;41.652;9.378;2023-11-22T01:18:43;11.30;99.90
28177;DHT22;15461;41.652;9.378;2023-11-22T01:21:11;11.30;99.90
28177;DHT22;15461;41.652;9.378;2023-11-22T01:23:37;11.30;99.90
28177;DHT22;15461;41.652;9.378;2023-11-22T01:26:03;11.30;99.90
28177;DHT22;15461;41.652;9.378;2023-11-22T01:28:29;11.30;99.90
28177;DHT22;15461;41.652;9.378;2023-11-22T01:31:00;11.30;99.90
28177;DHT22;15461;41.652;9.378;2023-11-22T01:33:27;11.40;99.90
28177;DHT22;15461;41.652;9.378;2023-11-22T01:35:53;11.40;99.90
28177;DHT22;15461;41.652;9.378;2023-11-22T01:38:19;11.40;99.90
28177;DHT22;15461;41.652;9.378;2023-11-22T01:40:47;11.40;99.90
28177;DHT22;15461;41.652;9.378;2023-11-22T01:43:14;11.40;99.90
28177;DHT22;15461;41.652;9.378;2023-11-22T01:45:41;11.40;99.90
28177;DHT22;15461;41.652;9.378;2023-11-22T01:48:07;11.30;99.90
28177;DHT22;15461;41.652;9.378;2023-11-22T01:50:39;11.30;99.90
28177;DHT22;15461;41.652;9.378;2023-11-22T01:53:07;11.20;99.90
28177;DHT22;15461;41.652;9.378;2023-11-22T01:55:34;11.20;99.90
28177;DHT22;15461;41.652;9.378;2023-11-22T01:58:00;11.10;99.90
28177;DHT22;15461;41.652;9.378;2023-11-22T02:00:32;11.20;99.90
28177;DHT22;15461;41.652;9.378;2023-11-22T02:02:58;11.20;99.90
28177;DHT22;15461;41.652;9.378;2023-11-22T02:05:25;11.20;99.90
28177;DHT22;15461;41.652;9.378;2023-11-22T02:07:51;11.30;99.90
28177;DHT22;15461;41.652;9.378;2023-11-22T02:10:17;11.40;99.90
28177;DHT22;15461;41.652;9.378;2023-11-22T02:12:43;11.40;99.90
28177;DHT22;15461;41.652;9.378;2023-11-22T02:15:09;11.40;99.90
28177;DHT22;15461;41.652;9.378;2023-11-22T02:17:35;11.40;99.90
28177;DHT22;15461;41.652;9.378;2023-11-22T02:20:01;11.40;99.90
28177;DHT22;15461;41.652;9.378;2023-11-22T02:22:32;11.40;99.90
28177;DHT22;15461;41.652;9.378;2023-11-22T02:24:57;11.50;99.90
28177;DHT22;15461;41.652;9.378;2023-11-22T02:27:24;11.40;99.90
28177;DHT22;15461;41.652;9.378;2023-11-22T02:29:50;11.40;99.90
28177;DHT22;15461;41.652;9.378;2023-11-22T02:32:16;11.40;99.90
28177;DHT22;15461;41.652;9.378;2023-11-22T02:34:42;11.50;99.90
28177;DHT22;15461;41.652;9.378;2023-11-22T02:37:07;11.50;99.90
28177;DHT22;15461;41.652;9.378;2023-11-22T02:40:00;11.50;99.90
28177;DHT22;15461;41.652;9.378;2023-11-22T02:42:30;11.50;99.90
28177;DHT22;15461;41.652;9.378;2023-11-22T02:44:55;11.50;99.90
28177;DHT22;15461;41.652;9.378;2023-11-22T02:47:23;11.60;99.90
28177;DHT22;15461;41.652;9.378;2023-11-22T02:49:49;11.60;99.90
28177;DHT22;15461;41.652;9.378;2023-11-22T02:52:15;11.60;99.90
28177;DHT22;15461;41.652;9.378;2023-11-22T02:54:43;11.60;99.90
28177;DHT22;15461;41.652;9.378;2023-11-22T02:57:11;11.60;99.90
28177;DHT22;15461;41.652;9.378;2023-11-22T02:59:37;11.60;99.90
28177;DHT22;15461;41.652;9.378;2023-11-22T03:02:03;11.50;99.90
28177;DHT22;15461;41.652;9.378;2023-11-22T03:04:28;11.50;99.90
28177;DHT22;15461;41.652;9.378;2023-11-22T03:06:54;11.60;99.90
28177;DHT22;15461;41.652;9.378;2023-11-22T03:09:21;11.50;99.90
28177;DHT22;15461;41.652;9.378;2023-11-22T03:11:49;11.50;99.90
28177;DHT22;15461;41.652;9.378;2023-11-22T03:14:17;11.50;99.90
28177;DHT22;15461;41.652;9.378;2023-11-22T03:16:45;11.40;99.90
28177;DHT22;15461;41.652;9.378;2023-11-22T03:19:11;11.30;99.90
28177;DHT22;15461;41.652;9.378;2023-11-22T03:21:39;11.30;99.90
28177;DHT22;15461;41.652;9.378;2023-11-22T03:24:08;11.30;99.90
28177;DHT22;15461;41.652;9.378;2023-11-22T03:26:34;11.20;99.90
28177;DHT22;15461;41.652;9.378;2023-11-22T03:29:00;11.10;99.90
28177;DHT22;15461;41.652;9.378;2023-11-22T03:31:29;11.10;99.90
28177;DHT22;15461;41.652;9.378;2023-11-22T03:33:57;11.10;99.90
28177;DHT22;15461;41.652;9.378;2023-11-22T03:36:23;11.10;99.90
28177;DHT22;15461;41.652;9.378;2023-11-22T03:38:50;11.00;99.90
28177;DHT22;15461;41.652;9.378;2023-11-22T03:41:16;11.10;99.90
28177;DHT22;15461;41.652;9.378;2023-11-22T03:43:44;11.10;99.90
28177;DHT22;15461;41.652;9.378;2023-11-22T03:46:10;11.10;99.90
28177;DHT22;15461;41.652;9.378;2023-11-22T03:48:39;11.30;99.90
28177;DHT22;15461;41.652;9.378;2023-11-22T03:51:05;11.30;99.90
28177;DHT22;15461;41.652;9.378;2023-11-22T03:53:31;11.20;99.90
28177;DHT22;15461;41.652;9.378;2023-11-22T03:55:57;11.20;99.90
28177;DHT22;15461;41.652;9.378;2023-11-22T03:58:23;11.20;99.90
28177;DHT22;15461;41.652;9.378;2023-11-22T04:00:51;11.10;99.90
28177;DHT22;15461;41.652;9.378;2023-11-22T04:03:18;11.10;99.90
28177;DHT22;15461;41.652;9.378;2023-11-22T04:05:44;11.10;99.90
28177;DHT22;15461;41.652;9.378;2023-11-22T04:08:10;11.10;99.90
28177;DHT22;15461;41.652;9.378;2023-11-22T04:10:36;11.20;99.90
28177;DHT22;15461;41.652;9.378;2023-11-22T04:13:02;11.20;99.90
28177;DHT22;15461;41.652;9.378;2023-11-22T04:15:28;11.20;99.90
28177;DHT22;15461;41.652;9.378;2023-11-22T04:17:53;11.20;99.90
28177;DHT22;15461;41.652;9.378;2023-11-22T04:20:20;11.20;99.90
28177;DHT22;15461;41.652;9.378;2023-11-22T04:22:46;11.30;99.90
28177;DHT22;15461;41.652;9.378;2023-11-22T04:25:12;11.30;99.90
28177;DHT22;15461;41.652;9.378;2023-11-22T04:27:41;11.30;99.90
28177;DHT22;15461;41.652;9.378;2023-11-22T04:30:08;11.30;99.90
28177;DHT22;15461;41.652;9.378;2023-11-22T04:32:37;11.40;99.90
28177;DHT22;15461;41.652;9.378;2023-11-22T04:35:03;11.40;99.90
28177;DHT22;15461;41.652;9.378;2023-11-22T04:37:31;11.40;99.90
28177;DHT22;15461;41.652;9.378;2023-11-22T04:39:58;11.40;99.90
28177;DHT22;15461;41.652;9.378;2023-11-22T04:42:24;11.40;99.90
28177;DHT22;15461;41.652;9.378;2023-11-22T04:44:50;11.30;99.90
28177;DHT22;15461;41.652;9.378;2023-11-22T04:47:15;11.30;99.90
28177;DHT22;15461;41.652;9.378;2023-11-22T04:49:41;11.40;99.90
28177;DHT22;15461;41.652;9.378;2023-11-22T04:52:07;11.40;99.90
28177;DHT22;15461;41.652;9.378;2023-11-22T04:54:33;11.40;99.90
28177;DHT22;15461;41.652;9.378;2023-11-22T04:56:59;11.40;99.90
28177;DHT22;15461;41.652;9.378;2023-11-22T04:59:25;11.40;99.90
28177;DHT22;15461;41.652;9.378;2023-11-22T05:01:51;11.40;99.90
28177;DHT22;15461;41.652;9.378;2023-11-22T05:04:16;11.30;99.90
28177;DHT22;15461;41.652;9.378;2023-11-22T05:06:44;11.30;99.90
28177;DHT22;15461;41.652;9.378;2023-11-22T05:09:10;11.30;99.90
28177;DHT22;15461;41.652;9.378;2023-11-22T05:11:38;11.20;99.90
28177;DHT22;15461;41.652;9.378;2023-11-22T05:14:04;11.20;99.90
28177;DHT22;15461;41.652;9.378;2023-11-22T05:16:29;11.20;99.90
28177;DHT22;15461;41.652;9.378;2023-11-22T05:18:55;11.20;99.90
28177;DHT22;15461;41.652;9.378;2023-11-22T05:21:21;11.20;99.90
28177;DHT22;15461;41.652;9.378;2023-11-22T05:23:47;11.10;99.90
28177;DHT22;15461;41.652;9.378;2023-11-22T05:26:12;11.10;99.90
28177;DHT22;15461;41.652;9.378;2023-11-22T05:28:38;11.10;99.90
28177;DHT22;15461;41.652;9.378;2023-11-22T05:31:04;11.00;99.90
28177;DHT22;15461;41.652;9.378;2023-11-22T05:33:30;11.10;99.90
28177;DHT22;15461;41.652;9.378;2023-11-22T05:35:57;11.10;99.90
28177;DHT22;15461;41.652;9.378;2023-11-22T05:38:22;11.10;99.90
28177;DHT22;15461;41.652;9.378;2023-11-22T05:40:48;11.10;99.90
28177;DHT22;15461;41.652;9.378;2023-11-22T05:43:14;11.00;99.90
28177;DHT22;15461;41.652;9.378;2023-11-22T05:45:40;11.00;99.90
28177;DHT22;15461;41.652;9.378;2023-11-22T05:48:06;11.00;99.90
28177;DHT22;15461;41.652;9.378;2023-11-22T05:50:32;10.90;99.90
28177;DHT22;15461;41.652;9.378;2023-11-22T05:52:57;10.90;99.90
28177;DHT22;15461;41.652;9.378;2023-11-22T05:55:23;10.90;99.90
28177;DHT22;15461;41.652;9.378;2023-11-22T05:57:49;10.80;99.90
28177;DHT22;15461;41.652;9.378;2023-11-22T06:00:15;10.80;99.90
28177;DHT22;15461;41.652;9.378;2023-11-22T06:02:41;10.80;99.90
28177;DHT22;15461;41.652;9.378;2023-11-22T06:05:07;10.80;99.90
28177;DHT22;15461;41.652;9.378;2023-11-22T06:07:33;10.80;99.90
28177;DHT22;15461;41.652;9.378;2023-11-22T06:09:59;10.70;99.90
28177;DHT22;15461;41.652;9.378;2023-11-22T06:12:25;10.70;99.90
28177;DHT22;15461;41.652;9.378;2023-11-22T06:14:51;10.70;99.90
28177;DHT22;15461;41.652;9.378;2023-11-22T06:17:18;10.70;99.90
28177;DHT22;15461;41.652;9.378;2023-11-22T06:19:44;10.70;99.90
28177;DHT22;15461;41.652;9.378;2023-11-22T06:22:09;10.70;99.90
28177;DHT22;15461;41.652;9.378;2023-11-22T06:24:35;10.70;99.90
28177;DHT22;15461;41.652;9.378;2023-11-22T06:27:02;10.70;99.90
28177;DHT22;15461;41.652;9.378;2023-11-22T06:29:28;10.70;99.90
28177;DHT22;15461;41.652;9.378;2023-11-22T06:31:54;10.70;99.90
28177;DHT22;15461;41.652;9.378;2023-11-22T06:34:20;10.70;99.90
28177;DHT22;15461;41.652;9.378;2023-11-22T06:36:46;10.70;99.90
28177;DHT22;15461;41.652;9.378;2023-11-22T06:39:12;10.60;99.90
28177;DHT22;15461;41.652;9.378;2023-11-22T06:41:41;10.60;99.90
28177;DHT22;15461;41.652;9.378;2023-11-22T06:44:07;10.60;99.90
28177;DHT22;15461;41.652;9.378;2023-11-22T06:46:33;10.60;99.90
28177;DHT22;15461;41.652;9.378;2023-11-22T06:48:58;10.70;99.90
28177;DHT22;15461;41.652;9.378;2023-11-22T06:51:24;10.70;99.90
28177;DHT22;15461;41.652;9.378;2023-11-22T06:53:50;10.70;99.90
28177;DHT22;15461;41.652;9.378;2023-11-22T06:56:18;10.70;99.90
28177;DHT22;15461;41.652;9.378;2023-11-22T06:58:43;10.70;99.90
28177;DHT22;15461;41.652;9.378;2023-11-22T07:01:09;10.70;99.90
28177;DHT22;15461;41.652;9.378;2023-11-22T07:03:36;10.70;99.90
28177;DHT22;15461;41.652;9.378;2023-11-22T07:06:03;10.70;99.90
28177;DHT22;15461;41.652;9.378;2023-11-22T07:08:30;10.70;99.90
28177;DHT22;15461;41.652;9.378;2023-11-22T07:10:56;10.70;99.90
28177;DHT22;15461;41.652;9.378;2023-11-22T07:13:24;10.70;99.90
28177;DHT22;15461;41.652;9.378;2023-11-22T07:15:52;10.70;99.90
28177;DHT22;15461;41.652;9.378;2023-11-22T07:18:20;10.70;99.90
28177;DHT22;15461;41.652;9.378;2023-11-22T07:20:49;10.60;99.90
28177;DHT22;15461;41.652;9.378;2023-11-22T07:23:14;10.60;99.90
28177;DHT22;15461;41.652;9.378;2023-11-22T07:25:41;10.70;99.90
28177;DHT22;15461;41.652;9.378;2023-11-22T07:28:07;10.70;99.90
28177;DHT22;15461;41.652;9.378;2023-11-22T07:30:33;10.70;99.90
28177;DHT22;15461;41.652;9.378;2023-11-22T07:32:59;10.80;99.90
28177;DHT22;15461;41.652;9.378;2023-11-22T07:35:25;10.80;99.90
28177;DHT22;15461;41.652;9.378;2023-11-22T07:37:51;10.80;99.90
28177;DHT22;15461;41.652;9.378;2023-11-22T07:40:17;10.80;99.90
28177;DHT22;15461;41.652;9.378;2023-11-22T07:42:45;10.90;99.90
28177;DHT22;15461;41.652;9.378;2023-11-22T07:45:10;10.90;99.90
28177;DHT22;15461;41.652;9.378;2023-11-22T07:47:37;11.00;99.90
28177;DHT22;15461;41.652;9.378;2023-11-22T07:50:10;11.00;99.90
28177;DHT22;15461;41.652;9.378;2023-11-22T07:52:37;11.00;99.90
28177;DHT22;15461;41.652;9.378;2023-11-22T07:55:04;11.10;99.90
28177;DHT22;15461;41.652;9.378;2023-11-22T07:57:34;11.20;99.90
28177;DHT22;15461;41.652;9.378;2023-11-22T08:00:00;11.20;99.90
28177;DHT22;15461;41.652;9.378;2023-11-22T08:02:27;11.10;99.90
28177;DHT22;15461;41.652;9.378;2023-11-22T08:04:53;11.10;99.90
28177;DHT22;15461;41.652;9.378;2023-11-22T08:07:20;11.10;99.90
28177;DHT22;15461;41.652;9.378;2023-11-22T08:09:48;11.10;99.90
28177;DHT22;15461;41.652;9.378;2023-11-22T08:12:14;11.10;99.90
28177;DHT22;15461;41.652;9.378;2023-11-22T08:14:40;11.00;99.90
28177;DHT22;15461;41.652;9.378;2023-11-22T08:17:06;11.00;99.90
28177;DHT22;15461;41.652;9.378;2023-11-22T08:19:32;11.00;99.90
28177;DHT22;15461;41.652;9.378;2023-11-22T08:21:58;11.10;99.90
28177;DHT22;15461;41.652;9.378;2023-11-22T08:24:23;11.10;99.90
28177;DHT22;15461;41.652;9.378;2023-11-22T08:26:49;11.10;99.90
28177;DHT22;15461;41.652;9.378;2023-11-22T08:29:15;11.10;99.90
28177;DHT22;15461;41.652;9.378;2023-11-22T08:31:41;11.10;99.90
28177;DHT22;15461;41.652;9.378;2023-11-22T08:34:07;11.10;99.90
28177;DHT22;15461;41.652;9.378;2023-11-22T08:36:33;11.10;99.90
28177;DHT22;15461;41.652;9.378;2023-11-22T08:39:03;11.00;99.90
28177;DHT22;15461;41.652;9.378;2023-11-22T08:41:30;11.00;99.90
28177;DHT22;15461;41.652;9.378;2023-11-22T08:43:57;11.00;99.90
28177;DHT22;15461;41.652;9.378;2023-11-22T08:46:23;11.00;99.90
28177;DHT22;15461;41.652;9.378;2023-11-22T08:48:49;11.00;99.90
28177;DHT22;15461;41.652;9.378;2023-11-22T08:51:16;11.00;99.90
28177;DHT22;15461;41.652;9.378;2023-11-22T08:53:43;10.90;99.90
28177;DHT22;15461;41.652;9.378;2023-11-22T08:56:10;10.90;99.90
28177;DHT22;15461;41.652;9.378;2023-11-22T08:58:39;10.90;99.90
28177;DHT22;15461;41.652;9.378;2023-11-22T09:01:06;10.90;99.90
28177;DHT22;15461;41.652;9.378;2023-11-22T09:03:33;10.90;99.90
28177;DHT22;15461;41.652;9.378;2023-11-22T09:05:59;10.80;99.90
28177;DHT22;15461;41.652;9.378;2023-11-22T09:08:26;10.80;99.90
28177;DHT22;15461;41.652;9.378;2023-11-22T09:10:52;10.80;99.90
28177;DHT22;15461;41.652;9.378;2023-11-22T09:13:18;10.70;99.90
28177;DHT22;15461;41.652;9.378;2023-11-22T09:15:45;10.80;99.90
28177;DHT22;15461;41.652;9.378;2023-11-22T09:18:11;10.80;99.90
28177;DHT22;15461;41.652;9.378;2023-11-22T09:20:38;10.80;99.90
28177;DHT22;15461;41.652;9.378;2023-11-22T09:23:04;10.80;99.90
28177;DHT22;15461;41.652;9.378;2023-11-22T09:25:30;10.80;99.90
28177;DHT22;15461;41.652;9.378;2023-11-22T09:27:58;10.80;99.90
28177;DHT22;15461;41.652;9.378;2023-11-22T09:30:29;10.80;99.90
28177;DHT22;15461;41.652;9.378;2023-11-22T09:33:07;10.80;99.90
28177;DHT22;15461;41.652;9.378;2023-11-22T09:35:35;10.70;99.90
28177;DHT22;15461;41.652;9.378;2023-11-22T09:38:02;10.70;99.90
28177;DHT22;15461;41.652;9.378;2023-11-22T09:40:29;10.70;99.90
28177;DHT22;15461;41.652;9.378;2023-11-22T09:42:58;10.80;99.90
28177;DHT22;15461;41.652;9.378;2023-11-22T09:45:25;10.80;99.90
28177;DHT22;15461;41.652;9.378;2023-11-22T09:47:55;10.80;99.90
28177;DHT22;15461;41.652;9.378;2023-11-22T09:53:34;10.80;99.90
28177;DHT22;15461;41.652;9.378;2023-11-22T09:56:03;10.80;99.90
28177;DHT22;15461;41.652;9.378;2023-11-22T09:58:34;10.80;99.90
28177;DHT22;15461;41.652;9.378;2023-11-22T10:01:00;10.80;99.90
28177;DHT22;15461;41.652;9.378;2023-11-22T10:03:27;10.80;99.90
28177;DHT22;15461;41.652;9.378;2023-11-22T10:05:56;10.80;99.90
28177;DHT22;15461;41.652;9.378;2023-11-22T10:08:27;10.80;99.90
28177;DHT22;15461;41.652;9.378;2023-11-22T10:10:56;10.80;99.90
28177;DHT22;15461;41.652;9.378;2023-11-22T10:13:22;10.80;99.90
28177;DHT22;15461;41.652;9.378;2023-11-22T10:15:52;10.90;99.90
28177;DHT22;15461;41.652;9.378;2023-11-22T10:18:19;10.90;99.90
28177;DHT22;15461;41.652;9.378;2023-11-22T10:20:46;10.90;99.90
28177;DHT22;15461;41.652;9.378;2023-11-22T10:23:14;10.90;99.90
28177;DHT22;15461;41.652;9.378;2023-11-22T10:25:47;10.90;99.90
28177;DHT22;15461;41.652;9.378;2023-11-22T10:28:26;10.90;99.90
28177;DHT22;15461;41.652;9.378;2023-11-22T10:30:53;11.00;99.90
28177;DHT22;15461;41.652;9.378;2023-11-22T10:33:19;11.00;99.90
28177;DHT22;15461;41.652;9.378;2023-11-22T10:35:50;11.00;99.90
28177;DHT22;15461;41.652;9.378;2023-11-22T10:38:20;11.00;99.90
28177;DHT22;15461;41.652;9.378;2023-11-22T10:40:46;11.00;99.90
28177;DHT22;15461;41.652;9.378;2023-11-22T10:43:16;11.00;99.90
28177;DHT22;15461;41.652;9.378;2023-11-22T10:45:43;11.00;99.90
28177;DHT22;15461;41.652;9.378;2023-11-22T10:48:14;11.10;99.90
28177;DHT22;15461;41.652;9.378;2023-11-22T10:50:42;11.00;99.90
28177;DHT22;15461;41.652;9.378;2023-11-22T10:53:12;11.10;99.90
28177;DHT22;15461;41.652;9.378;2023-11-22T10:55:44;11.10;99.90
28177;DHT22;15461;41.652;9.378;2023-11-22T10:58:11;11.10;99.90
28177;DHT22;15461;41.652;9.378;2023-11-22T11:00:41;11.10;99.90
28177;DHT22;15461;41.652;9.378;2023-11-22T11:03:14;11.10;99.90
28177;DHT22;15461;41.652;9.378;2023-11-22T11:05:56;11.10;99.90
28177;DHT22;15461;41.652;9.378;2023-11-22T11:08:25;11.10;99.90
28177;DHT22;15461;41.652;9.378;2023-11-22T11:10:53;11.10;99.90
28177;DHT22;15461;41.652;9.378;2023-11-22T11:13:21;11.10;99.90
28177;DHT22;15461;41.652;9.378;2023-11-22T11:15:49;11.20;99.90
28177;DHT22;15461;41.652;9.378;2023-11-22T11:18:17;11.20;99.90
28177;DHT22;15461;41.652;9.378;2023-11-22T11:20:48;11.20;99.90
28177;DHT22;15461;41.652;9.378;2023-11-22T11:23:18;11.20;99.90
28177;DHT22;15461;41.652;9.378;2023-11-22T11:25:48;11.30;99.90
28177;DHT22;15461;41.652;9.378;2023-11-22T11:28:14;11.40;99.90
28177;DHT22;15461;41.652;9.378;2023-11-22T11:30:42;11.40;99.90
28177;DHT22;15461;41.652;9.378;2023-11-22T11:33:09;11.50;99.90
28177;DHT22;15461;41.652;9.378;2023-11-22T11:35:39;11.50;99.90
28177;DHT22;15461;41.652;9.378;2023-11-22T11:38:07;11.50;99.90
28177;DHT22;15461;41.652;9.378;2023-11-22T11:40:35;11.60;99.90
28177;DHT22;15461;41.652;9.378;2023-11-22T11:43:02;11.60;99.90
28177;DHT22;15461;41.652;9.378;2023-11-22T11:45:28;11.70;99.90
28177;DHT22;15461;41.652;9.378;2023-11-22T11:47:55;11.70;99.90
28177;DHT22;15461;41.652;9.378;2023-11-22T11:50:21;11.70;99.90
28177;DHT22;15461;41.652;9.378;2023-11-22T11:52:47;11.70;99.90
28177;DHT22;15461;41.652;9.378;2023-11-22T11:55:13;11.80;99.90
28177;DHT22;15461;41.652;9.378;2023-11-22T11:57:40;11.90;99.90
28177;DHT22;15461;41.652;9.378;2023-11-22T12:00:08;11.90;99.90
28177;DHT22;15461;41.652;9.378;2023-11-22T12:02:37;11.80;99.90
28177;DHT22;15461;41.652;9.378;2023-11-22T12:05:03;11.80;99.90
28177;DHT22;15461;41.652;9.378;2023-11-22T12:07:37;11.80;99.90
28177;DHT22;15461;41.652;9.378;2023-11-22T12:10:04;11.80;99.90
28177;DHT22;15461;41.652;9.378;2023-11-22T12:12:32;11.80;99.90
28177;DHT22;15461;41.652;9.378;2023-11-22T12:14:58;11.90;99.90
28177;DHT22;15461;41.652;9.378;2023-11-22T12:17:26;12.00;99.90
28177;DHT22;15461;41.652;9.378;2023-11-22T12:19:53;12.10;99.90
28177;DHT22;15461;41.652;9.378;2023-11-22T12:22:20;12.10;99.90
28177;DHT22;15461;41.652;9.378;2023-11-22T12:24:46;12.20;99.90
28177;DHT22;15461;41.652;9.378;2023-11-22T12:27:12;12.20;99.90
28177;DHT22;15461;41.652;9.378;2023-11-22T12:29:39;12.30;99.90
28177;DHT22;15461;41.652;9.378;2023-11-22T12:32:07;12.30;99.90
28177;DHT22;15461;41.652;9.378;2023-11-22T12:34:33;12.30;99.90
28177;DHT22;15461;41.652;9.378;2023-11-22T12:36:59;12.40;99.90
28177;DHT22;15461;41.652;9.378;2023-11-22T12:39:25;12.40;99.90
28177;DHT22;15461;41.652;9.378;2023-11-22T12:41:53;12.40;99.90
28177;DHT22;15461;41.652;9.378;2023-11-22T12:44:20;12.50;99.90
28177;DHT22;15461;41.652;9.378;2023-11-22T12:46:53;12.50;99.90
28177;DHT22;15461;41.652;9.378;2023-11-22T12:49:27;12.50;99.90
28177;DHT22;15461;41.652;9.378;2023-11-22T12:51:55;12.60;99.90
28177;DHT22;15461;41.652;9.378;2023-11-22T12:54:22;12.70;99.90
28177;DHT22;15461;41.652;9.378;2023-11-22T12:56:52;12.80;99.90
28177;DHT22;15461;41.652;9.378;2023-11-22T12:59:24;12.80;99.90
28177;DHT22;15461;41.652;9.378;2023-11-22T13:01:53;12.80;99.90
28177;DHT22;15461;41.652;9.378;2023-11-22T13:04:20;12.80;99.90
28177;DHT22;15461;41.652;9.378;2023-11-22T13:06:45;12.90;99.90
28177;DHT22;15461;41.652;9.378;2023-11-22T13:09:11;12.90;99.90
28177;DHT22;15461;41.652;9.378;2023-11-22T13:11:43;12.90;99.90
28177;DHT22;15461;41.652;9.378;2023-11-22T13:14:09;13.00;99.90
28177;DHT22;15461;41.652;9.378;2023-11-22T13:16:35;13.00;99.90
28177;DHT22;15461;41.652;9.378;2023-11-22T13:19:04;13.00;99.90
28177;DHT22;15461;41.652;9.378;2023-11-22T13:21:30;13.00;99.90
28177;DHT22;15461;41.652;9.378;2023-11-22T13:23:57;13.00;99.90
28177;DHT22;15461;41.652;9.378;2023-11-22T13:26:25;13.00;99.90
28177;DHT22;15461;41.652;9.378;2023-11-22T13:28:51;13.00;99.90
28177;DHT22;15461;41.652;9.378;2023-11-22T13:31:19;13.00;99.90
28177;DHT22;15461;41.652;9.378;2023-11-22T13:33:47;13.00;99.90
28177;DHT22;15461;41.652;9.378;2023-11-22T13:36:13;13.00;99.90
28177;DHT22;15461;41.652;9.378;2023-11-22T13:38:40;13.00;99.90
28177;DHT22;15461;41.652;9.378;2023-11-22T13:41:05;13.00;99.90
28177;DHT22;15461;41.652;9.378;2023-11-22T13:43:31;12.80;99.90
28177;DHT22;15461;41.652;9.378;2023-11-22T13:46:01;12.60;99.90
28177;DHT22;15461;41.652;9.378;2023-11-22T13:48:26;12.50;99.90
28177;DHT22;15461;41.652;9.378;2023-11-22T13:50:52;12.60;99.90
28177;DHT22;15461;41.652;9.378;2023-11-22T13:53:18;12.70;99.90
28177;DHT22;15461;41.652;9.378;2023-11-22T13:55:48;12.80;99.90
28177;DHT22;15461;41.652;9.378;2023-11-22T13:58:15;12.80;99.90
28177;DHT22;15461;41.652;9.378;2023-11-22T14:00:41;12.90;99.90
28177;DHT22;15461;41.652;9.378;2023-11-22T14:03:07;12.90;99.90
28177;DHT22;15461;41.652;9.378;2023-11-22T14:05:34;13.00;99.90
28177;DHT22;15461;41.652;9.378;2023-11-22T14:08:02;13.00;99.90
28177;DHT22;15461;41.652;9.378;2023-11-22T14:10:28;13.10;99.90
28177;DHT22;15461;41.652;9.378;2023-11-22T14:12:54;13.10;99.90
28177;DHT22;15461;41.652;9.378;2023-11-22T14:15:20;13.20;99.90
28177;DHT22;15461;41.652;9.378;2023-11-22T14:17:46;13.20;99.90
28177;DHT22;15461;41.652;9.378;2023-11-22T14:20:15;13.20;99.90
28177;DHT22;15461;41.652;9.378;2023-11-22T14:22:42;13.30;99.90
28177;DHT22;15461;41.652;9.378;2023-11-22T14:25:09;13.30;99.90
28177;DHT22;15461;41.652;9.378;2023-11-22T14:27:40;13.30;99.90
28177;DHT22;15461;41.652;9.378;2023-11-22T14:30:07;13.30;99.90
28177;DHT22;15461;41.652;9.378;2023-11-22T14:32:36;13.30;99.90
28177;DHT22;15461;41.652;9.378;2023-11-22T14:35:03;13.40;99.90
28177;DHT22;15461;41.652;9.378;2023-11-22T14:37:29;13.40;99.90
28177;DHT22;15461;41.652;9.378;2023-11-22T14:39:58;13.40;99.90
28177;DHT22;15461;41.652;9.378;2023-11-22T14:42:24;13.40;99.90
28177;DHT22;15461;41.652;9.378;2023-11-22T14:44:50;13.40;99.90
28177;DHT22;15461;41.652;9.378;2023-11-22T14:47:17;13.40;99.90
28177;DHT22;15461;41.652;9.378;2023-11-22T14:49:49;13.40;99.90
28177;DHT22;15461;41.652;9.378;2023-11-22T14:52:15;13.50;99.90
28177;DHT22;15461;41.652;9.378;2023-11-22T14:54:42;13.50;99.90
28177;DHT22;15461;41.652;9.378;2023-11-22T14:57:09;13.60;99.90
28177;DHT22;15461;41.652;9.378;2023-11-22T14:59:36;13.60;99.90
28177;DHT22;15461;41.652;9.378;2023-11-22T15:02:03;13.60;99.90
28177;DHT22;15461;41.652;9.378;2023-11-22T15:04:32;13.60;99.90
28177;DHT22;15461;41.652;9.378;2023-11-22T15:07:00;13.60;99.90
28177;DHT22;15461;41.652;9.378;2023-11-22T15:09:26;13.60;99.90
28177;DHT22;15461;41.652;9.378;2023-11-22T15:11:52;13.60;99.90
28177;DHT22;15461;41.652;9.378;2023-11-22T15:14:17;13.60;99.90
28177;DHT22;15461;41.652;9.378;2023-11-22T15:16:43;13.60;99.90
28177;DHT22;15461;41.652;9.378;2023-11-22T15:19:09;13.60;99.90
28177;DHT22;15461;41.652;9.378;2023-11-22T15:21:35;13.60;99.90
28177;DHT22;15461;41.652;9.378;2023-11-22T15:24:02;13.60;99.90
28177;DHT22;15461;41.652;9.378;2023-11-22T15:26:29;13.70;99.90
28177;DHT22;15461;41.652;9.378;2023-11-22T15:28:55;13.70;99.90
28177;DHT22;15461;41.652;9.378;2023-11-22T15:31:21;13.70;99.90